createdAt,value
2023-04-24T00:02:15.188Z,19.83
2023-04-24T00:04:45.839Z,18.94
2023-04-24T00:07:21.096Z,18.29
2023-04-24T00:09:48.888Z,18.97
2023-04-24T00:12:16.730Z,20.46
2023-04-24T00:14:44.583Z,20.53
2023-04-24T00:17:12.400Z,19.49
2023-04-24T00:19:40.584Z,18.70
2023-04-24T00:22:08.765Z,18.11
2023-04-24T00:24:36.547Z,18.66
2023-04-24T00:27:04.579Z,20.21
2023-04-24T00:29:32.378Z,20.81
2023-04-24T00:32:00.155Z,19.84
2023-04-24T00:34:28.038Z,18.94
2023-04-24T00:36:56.067Z,18.30
2023-04-24T00:39:24.076Z,18.91
2023-04-24T00:41:52.077Z,20.43
2023-04-24T00:44:20.221Z,20.96
2023-04-24T00:46:48.480Z,19.95
2023-04-24T00:49:16.450Z,19.02
2023-04-24T00:51:46.751Z,18.36
2023-04-24T00:54:14.717Z,19.10
2023-04-24T00:56:43.829Z,20.54
2023-04-24T00:59:13.888Z,21.01
2023-04-24T01:01:43.287Z,19.95
2023-04-24T01:04:12.554Z,18.98
2023-04-24T01:06:41.529Z,18.69
2023-04-24T01:09:10.469Z,19.95
2023-04-24T01:11:38.902Z,20.73
2023-04-24T01:14:07.306Z,19.84
2023-04-24T01:16:35.265Z,18.89
2023-04-24T01:19:03.593Z,18.79
2023-04-24T01:21:31.629Z,20.14
2023-04-24T01:23:59.484Z,20.89
2023-04-24T01:26:27.249Z,19.98
2023-04-24T01:28:55.193Z,19.04
2023-04-24T01:31:23.489Z,18.76
2023-04-24T01:33:52.462Z,20.01
2023-04-24T01:36:20.656Z,20.94
2023-04-24T01:38:48.535Z,20.13
2023-04-24T01:41:16.725Z,19.12
2023-04-24T01:43:44.521Z,18.86
2023-04-24T01:46:12.700Z,20.06
2023-04-24T01:48:41.223Z,20.73
2023-04-24T01:51:09.379Z,19.76
2023-04-24T01:53:37.283Z,18.78
2023-04-24T01:56:05.482Z,18.55
2023-04-24T01:58:33.364Z,19.84
2023-04-24T02:01:01.533Z,20.95
2023-04-24T02:03:29.948Z,20.49
2023-04-24T02:05:58.008Z,19.37
2023-04-24T02:08:26.183Z,18.71
2023-04-24T02:10:54.003Z,19.59
2023-04-24T02:13:21.854Z,20.76
2023-04-24T02:15:49.649Z,20.44
2023-04-24T02:18:17.993Z,19.32
2023-04-24T02:20:46.237Z,18.44
2023-04-24T02:23:14.702Z,18.37
2023-04-24T02:25:42.583Z,19.71
2023-04-24T02:28:10.381Z,20.72
2023-04-24T02:30:38.253Z,20.03
2023-04-24T02:33:06.106Z,18.96
2023-04-24T02:35:33.845Z,18.54
2023-04-24T02:38:01.702Z,19.75
2023-04-24T02:40:29.985Z,20.93
2023-04-24T02:42:57.754Z,20.55
2023-04-24T02:45:25.573Z,19.39
2023-04-24T02:47:53.496Z,18.53
2023-04-24T02:50:21.789Z,18.58
2023-04-24T02:52:49.678Z,20.02
2023-04-24T02:55:17.634Z,20.72
2023-04-24T02:57:45.395Z,19.74
2023-04-24T03:00:14.511Z,18.77
2023-04-24T03:02:43.149Z,18.62
2023-04-24T03:05:13.148Z,19.98
2023-04-24T03:07:41.305Z,21.00
2023-04-24T03:10:10.048Z,20.36
2023-04-24T03:12:37.805Z,19.21
2023-04-24T03:15:06.548Z,18.37
2023-04-24T03:17:34.404Z,18.80
2023-04-24T03:20:02.946Z,20.21
2023-04-24T03:22:30.857Z,20.77
2023-04-24T03:24:58.742Z,19.73
2023-04-24T03:27:26.549Z,18.69
2023-04-24T03:29:56.595Z,18.54
2023-04-24T03:32:24.828Z,19.87
2023-04-24T03:34:52.929Z,20.87
2023-04-24T03:37:20.936Z,20.19
2023-04-24T03:39:48.797Z,19.06
2023-04-24T03:42:16.625Z,18.60
2023-04-24T03:44:44.580Z,19.80
2023-04-24T03:47:12.382Z,20.72
2023-04-24T03:49:40.242Z,19.90
2023-04-24T03:52:08.099Z,18.87
2023-04-24T03:54:36.018Z,18.57
2023-04-24T03:57:05.795Z,19.84
2023-04-24T03:59:33.669Z,20.58
2023-04-24T04:02:01.734Z,19.63
2023-04-24T04:04:30.148Z,18.62
2023-04-24T04:07:02.208Z,18.51
2023-04-24T04:09:30.536Z,19.89
2023-04-24T04:11:58.380Z,20.66
2023-04-24T04:14:29.737Z,19.68
2023-04-24T04:17:02.112Z,18.64
2023-04-24T04:19:30.020Z,18.75
2023-04-24T04:21:57.970Z,20.12
2023-04-24T04:24:27.726Z,20.52
2023-04-24T04:26:59.267Z,19.45
2023-04-24T04:29:27.201Z,18.52
2023-04-24T04:31:56.244Z,18.78
2023-04-24T04:34:24.464Z,20.17
2023-04-24T04:36:52.716Z,20.67
2023-04-24T04:39:20.912Z,19.63
2023-04-24T04:41:49.991Z,18.70
2023-04-24T04:44:18.236Z,19.08
2023-04-24T04:46:46.165Z,20.43
2023-04-24T04:49:14.219Z,20.86
2023-04-24T04:51:43.206Z,19.76
2023-04-24T04:54:11.158Z,18.79
2023-04-24T04:56:39.202Z,18.58
2023-04-24T05:05:41.792Z,19.08
2023-04-24T05:08:19.815Z,18.59
2023-04-24T05:10:55.182Z,19.81
2023-04-24T05:13:35.546Z,20.82
2023-04-24T05:16:07.656Z,20.01
2023-04-24T05:18:35.593Z,18.99
2023-04-24T05:21:03.604Z,18.77
2023-04-24T05:23:31.639Z,20.08
2023-04-24T05:25:59.484Z,20.69
2023-04-24T05:28:30.472Z,19.78
2023-04-24T05:30:58.933Z,18.92
2023-04-24T05:33:26.786Z,18.90
2023-04-24T05:35:54.821Z,20.29
2023-04-24T05:38:22.636Z,20.79
2023-04-24T05:40:50.550Z,19.83
2023-04-24T05:43:18.406Z,18.97
2023-04-24T05:45:46.196Z,18.76
2023-04-24T05:48:13.975Z,20.07
2023-04-24T05:50:41.799Z,20.64
2023-04-24T05:53:11.607Z,19.74
2023-04-24T05:55:39.832Z,18.91
2023-04-24T05:58:10.859Z,18.32
2023-04-24T06:00:40.860Z,18.97
2023-04-24T06:03:09.014Z,20.42
2023-04-24T06:05:37.108Z,20.96
2023-04-24T06:08:05.317Z,20.02
2023-04-24T06:10:33.137Z,19.13
2023-04-24T06:13:01.653Z,18.98
2023-04-24T06:15:32.036Z,20.31
2023-04-24T06:18:00.195Z,20.63
2023-04-24T06:20:28.136Z,19.68
2023-04-24T06:22:56.083Z,18.92
2023-04-24T06:25:27.500Z,19.24
2023-04-24T06:27:56.787Z,20.66
2023-04-24T06:30:24.580Z,21.24
2023-04-24T06:32:52.453Z,20.33
2023-04-24T06:35:20.685Z,19.50
2023-04-24T06:37:48.563Z,18.93
2023-04-24T06:40:16.380Z,19.31
2023-04-24T06:42:44.217Z,20.85
2023-04-24T06:45:12.351Z,21.51
2023-04-24T06:47:40.459Z,20.64
2023-04-24T06:50:08.969Z,19.84
2023-04-24T06:52:36.895Z,19.28
2023-04-24T06:55:05.466Z,19.02
2023-04-24T06:57:33.366Z,20.21
2023-04-24T07:00:01.217Z,21.04
2023-04-24T07:02:29.431Z,20.29
2023-04-24T07:04:58.107Z,19.55
2023-04-24T07:07:26.041Z,19.02
2023-04-24T07:09:55.212Z,18.63
2023-04-24T07:12:23.222Z,19.21
2023-04-24T07:14:52.120Z,20.88
2023-04-24T07:17:20.044Z,21.10
2023-04-24T07:19:47.880Z,20.49
2023-04-24T07:22:18.385Z,20.08
2023-04-24T07:24:46.374Z,19.86
2023-04-24T07:27:16.160Z,19.71
2023-04-24T07:29:44.477Z,19.54
2023-04-24T07:32:12.762Z,19.36
2023-04-24T07:34:41.074Z,19.18
2023-04-24T07:37:08.945Z,19.00
2023-04-24T07:39:36.760Z,18.84
2023-04-24T07:42:05.735Z,19.08
2023-04-24T07:44:33.985Z,20.71
2023-04-24T07:47:02.716Z,20.95
2023-04-24T07:52:48.155Z,19.56
2023-04-24T07:55:16.192Z,19.25
2023-04-24T07:57:44.112Z,19.03
2023-04-24T08:00:12.683Z,18.86
2023-04-24T08:02:40.774Z,18.70
2023-04-24T08:05:09.644Z,18.54
2023-04-24T08:07:37.668Z,18.98
2023-04-24T08:10:06.710Z,20.69
2023-04-24T08:12:34.697Z,21.39
2023-04-24T08:15:02.515Z,20.62
2023-04-24T08:17:32.680Z,19.99
2023-04-24T08:20:02.662Z,19.57
2023-04-24T08:22:30.722Z,19.26
2023-04-24T08:25:01.429Z,19.03
2023-04-24T08:27:29.382Z,19.09
2023-04-24T08:29:58.419Z,20.36
2023-04-24T08:32:28.926Z,20.38
2023-04-24T08:34:57.980Z,19.77
2023-04-24T08:37:28.105Z,19.33
2023-04-24T08:39:56.176Z,19.06
2023-04-24T08:42:24.337Z,18.89
2023-04-24T08:44:52.426Z,18.77
2023-04-24T08:47:21.694Z,18.68
2023-04-24T08:49:51.119Z,18.69
2023-04-24T08:52:20.110Z,18.74
2023-04-24T08:54:48.750Z,18.81
2023-04-24T08:57:17.669Z,18.87
2023-04-24T08:59:45.982Z,18.94
2023-04-24T09:02:14.750Z,19.01
2023-04-24T09:04:44.611Z,19.11
2023-04-24T09:07:13.558Z,19.24
2023-04-24T09:09:42.827Z,19.38
2023-04-24T09:12:11.531Z,19.57
2023-04-24T09:14:43.694Z,19.83
2023-04-24T09:17:12.840Z,20.13
2023-04-24T09:19:42.247Z,20.46
2023-04-24T09:22:12.397Z,20.82
2023-04-24T09:24:40.236Z,21.18
2023-04-24T09:27:11.176Z,21.51
2023-04-24T09:29:39.428Z,21.71
2023-04-24T09:32:22.976Z,21.79
2023-04-24T09:34:52.476Z,21.79
2023-04-24T09:37:30.731Z,21.78
2023-04-24T09:40:12.055Z,21.75
2023-04-24T09:42:41.915Z,21.72
2023-04-24T09:45:15.533Z,21.66
2023-04-24T09:47:44.070Z,21.56
2023-04-24T09:50:17.081Z,21.46
2023-04-24T09:53:06.933Z,21.35
2023-04-24T09:55:42.176Z,21.20
2023-04-24T09:58:10.484Z,21.05
2023-04-24T10:00:38.750Z,20.93
2023-04-24T10:03:07.226Z,20.79
2023-04-24T10:05:37.764Z,20.67
2023-04-24T10:08:11.872Z,20.55
2023-04-24T10:10:42.965Z,20.44
2023-04-24T10:13:12.410Z,20.32
2023-04-24T10:15:42.192Z,20.21
2023-04-24T10:18:12.006Z,20.09
2023-04-24T10:20:41.774Z,19.97
2023-04-24T10:23:09.807Z,19.85
2023-04-24T10:25:38.141Z,19.77
2023-04-24T10:28:07.748Z,19.76
2023-04-24T10:30:37.174Z,19.80
2023-04-24T10:33:07.878Z,19.86
2023-04-24T10:35:43.253Z,19.94
2023-04-24T10:38:14.735Z,20.00
2023-04-24T10:40:45.446Z,20.04
2023-04-24T10:43:18.609Z,20.08
2023-04-24T10:46:07.299Z,20.10
2023-04-24T10:48:35.286Z,20.12
2023-04-24T10:51:03.524Z,20.12
2023-04-24T10:53:32.328Z,20.12
2023-04-24T10:56:11.003Z,20.13
2023-04-24T10:58:53.309Z,20.17
2023-04-24T11:01:28.129Z,20.21
2023-04-24T11:04:03.114Z,20.27
2023-04-24T11:06:37.248Z,20.29
2023-04-24T11:09:09.967Z,20.32
2023-04-24T11:11:45.760Z,20.33
2023-04-24T11:14:17.417Z,20.35
2023-04-24T11:16:58.458Z,20.35
2023-04-24T11:19:29.704Z,20.34
2023-04-24T11:22:07.041Z,20.33
2023-04-24T11:24:40.793Z,20.36
2023-04-24T11:27:20.741Z,20.39
2023-04-24T11:29:57.111Z,20.43
2023-04-24T11:32:34.266Z,20.48
2023-04-24T11:35:08.011Z,20.56
2023-04-24T11:37:39.021Z,20.61
2023-04-24T11:40:10.224Z,20.65
2023-04-24T11:42:41.666Z,20.68
2023-04-24T11:45:15.054Z,20.68
2023-04-24T11:47:44.251Z,20.67
2023-04-24T11:50:51.277Z,20.62
2023-04-24T11:53:27.728Z,20.53
2023-04-24T11:55:55.718Z,20.47
2023-04-24T11:58:24.005Z,20.38
2023-04-24T12:01:02.233Z,20.28
2023-04-24T12:03:30.197Z,20.17
2023-04-24T12:06:12.437Z,20.05
2023-04-24T12:08:40.620Z,19.92
2023-04-24T12:11:08.911Z,19.81
2023-04-24T12:13:37.545Z,19.70
2023-04-24T12:16:06.874Z,19.58
2023-04-24T12:18:34.820Z,19.49
2023-04-24T12:21:27.589Z,19.39
2023-04-24T12:23:56.808Z,19.28
2023-04-24T12:26:25.652Z,19.18
2023-04-24T12:28:53.713Z,19.10
2023-04-24T12:31:23.187Z,19.01
2023-04-24T12:40:26.873Z,18.76
2023-04-24T12:42:55.643Z,18.73
2023-04-24T12:45:26.426Z,19.48
2023-04-24T12:47:54.547Z,21.25
2023-04-24T12:50:22.441Z,21.81
2023-04-24T12:52:50.562Z,21.11
2023-04-24T12:55:18.484Z,20.54
2023-04-24T12:57:46.351Z,20.20
2023-04-24T13:00:14.868Z,19.95
2023-04-24T13:02:42.753Z,19.76
2023-04-24T13:05:12.758Z,19.61
2023-04-24T13:07:41.124Z,19.48
2023-04-24T13:10:09.921Z,19.34
2023-04-24T13:12:38.348Z,19.23
2023-04-24T13:15:07.580Z,19.13
2023-04-24T13:17:36.782Z,19.04
2023-04-24T13:20:05.420Z,18.96
2023-04-24T13:22:33.240Z,18.89
2023-04-24T13:25:02.421Z,18.82
2023-04-24T13:27:30.409Z,18.77
2023-04-24T13:29:58.388Z,18.72
2023-04-24T13:32:26.699Z,18.68
2023-04-24T13:34:54.798Z,18.65
2023-04-24T13:37:23.316Z,18.60
2023-04-24T13:39:52.495Z,18.57
2023-04-24T13:42:21.689Z,18.54
2023-04-24T13:44:49.814Z,18.50
2023-04-24T13:47:17.959Z,18.48
2023-04-24T13:49:45.810Z,18.44
2023-04-24T13:52:13.617Z,18.40
2023-04-24T13:54:41.427Z,18.36
2023-04-24T13:57:09.255Z,18.32
2023-04-24T13:59:38.123Z,18.27
2023-04-24T14:02:06.327Z,18.22
2023-04-24T14:04:34.363Z,18.17
2023-04-24T14:07:02.413Z,18.11
2023-04-24T14:09:30.339Z,18.05
2023-04-24T14:11:58.289Z,17.99
2023-04-24T14:14:26.225Z,17.92
2023-04-24T14:16:54.089Z,17.84
2023-04-24T14:19:21.913Z,17.74
2023-04-24T14:21:49.751Z,17.65
2023-04-24T14:24:17.556Z,17.71
2023-04-24T14:26:45.404Z,19.09
2023-04-24T14:29:15.182Z,20.11
2023-04-24T14:31:43.840Z,19.50
2023-04-24T14:34:11.998Z,18.88
2023-04-24T14:36:39.840Z,18.45
2023-04-24T14:39:08.360Z,18.15
2023-04-24T14:41:38.267Z,17.93
2023-04-24T14:44:06.780Z,18.18
2023-04-24T14:46:34.763Z,19.76
2023-04-24T14:49:02.819Z,20.34
2023-04-24T14:51:31.860Z,19.59
2023-04-24T14:53:59.736Z,18.97
2023-04-24T14:56:27.546Z,18.55
2023-04-24T14:58:56.242Z,18.96
2023-04-24T15:01:25.300Z,20.46
2023-04-24T15:03:53.633Z,21.12
2023-04-24T15:06:22.053Z,20.33
2023-04-24T15:08:50.716Z,19.57
2023-04-24T15:11:19.216Z,19.07
2023-04-24T15:13:47.781Z,18.70
2023-04-24T15:16:16.683Z,18.40
2023-04-24T15:18:44.923Z,18.83
2023-04-24T15:21:13.916Z,20.34
2023-04-24T15:23:41.809Z,20.77
2023-04-24T15:26:09.694Z,19.99
2023-04-24T15:28:39.920Z,19.33
2023-04-24T15:31:07.797Z,18.88
2023-04-24T15:33:35.642Z,18.82
2023-04-24T15:36:03.527Z,20.17
2023-04-24T15:38:32.447Z,20.52
2023-04-24T15:41:00.531Z,19.79
2023-04-24T15:43:32.020Z,19.20
2023-04-24T15:45:59.890Z,18.79
2023-04-24T15:48:29.731Z,18.45
2023-04-24T15:50:57.858Z,18.18
2023-04-24T15:53:27.134Z,17.96
2023-04-24T15:55:57.449Z,17.76
2023-04-24T15:58:25.522Z,17.58
2023-04-24T16:00:54.505Z,17.39
2023-04-24T16:03:22.913Z,17.21
2023-04-24T16:05:51.097Z,17.05
2023-04-24T16:08:18.876Z,16.90
2023-04-24T16:10:47.175Z,16.76
2023-04-24T16:13:16.923Z,16.62
2023-04-24T16:15:45.528Z,16.48
2023-04-24T16:18:17.552Z,16.35
2023-04-24T16:20:45.574Z,16.22
2023-04-24T16:23:15.026Z,16.11
2023-04-24T16:25:43.168Z,16.00
2023-04-24T16:28:12.223Z,15.90
2023-04-24T16:30:41.584Z,15.81
2023-04-24T16:33:11.129Z,15.72
2023-04-24T16:35:39.027Z,15.64
2023-04-24T16:38:07.067Z,16.02
2023-04-24T16:40:35.387Z,17.77
2023-04-24T16:43:03.176Z,18.82
2023-04-24T16:45:31.189Z,18.14
2023-04-24T16:47:59.188Z,17.46
2023-04-24T16:50:27.495Z,17.03
2023-04-24T16:52:55.327Z,16.75
2023-04-24T16:55:25.324Z,16.53
2023-04-24T16:57:53.404Z,16.58
2023-04-24T17:00:23.999Z,17.96
2023-04-24T17:02:52.144Z,19.38
2023-04-24T17:05:23.346Z,19.30
2023-04-24T17:07:51.590Z,18.40
2023-04-24T17:10:19.446Z,17.73
2023-04-24T17:12:47.594Z,17.28
2023-04-24T17:15:15.790Z,16.96
2023-04-24T17:17:44.470Z,17.53
2023-04-24T17:20:22.277Z,19.07
2023-04-24T17:22:51.495Z,19.53
2023-04-24T17:25:20.447Z,18.65
2023-04-24T17:27:48.420Z,17.88
2023-04-24T17:30:17.970Z,17.37
2023-04-24T17:32:46.610Z,16.99
2023-04-24T17:39:55.531Z,19.22
2023-04-24T17:42:23.296Z,18.38
2023-04-24T17:44:51.221Z,17.62
2023-04-24T17:47:21.105Z,17.11
2023-04-24T17:49:48.913Z,17.25
2023-04-24T17:52:17.893Z,18.69
2023-04-24T17:54:46.050Z,19.33
2023-04-24T17:57:13.868Z,18.49
2023-04-24T17:59:41.719Z,17.68
2023-04-24T18:02:09.641Z,17.11
2023-04-24T18:04:39.325Z,16.70
2023-04-24T18:07:07.367Z,16.81
2023-04-24T18:09:35.495Z,18.26
2023-04-24T18:12:03.853Z,19.13
2023-04-24T18:14:31.652Z,18.37
2023-04-24T18:16:59.694Z,17.52
2023-04-24T18:19:28.065Z,16.95
2023-04-24T18:21:56.025Z,17.00
2023-04-24T18:24:23.994Z,18.37
2023-04-24T18:26:51.750Z,19.22
2023-04-24T18:29:19.682Z,18.43
2023-04-24T18:31:49.121Z,17.58
2023-04-24T18:34:17.240Z,17.04
2023-04-24T18:36:45.005Z,17.77
2023-04-24T18:39:14.131Z,19.18
2023-04-24T18:41:41.980Z,19.61
2023-04-24T18:44:11.692Z,18.66
2023-04-24T18:46:41.599Z,17.76
2023-04-24T18:49:09.763Z,17.17
2023-04-24T18:51:50.192Z,17.71
2023-04-24T18:54:20.965Z,19.24
2023-04-24T18:56:48.858Z,19.39
2023-04-24T18:59:16.791Z,18.38
2023-04-24T19:01:44.743Z,17.56
2023-04-24T19:04:13.901Z,17.34
2023-04-24T19:06:41.940Z,18.59
2023-04-24T19:09:09.780Z,19.37
2023-04-24T19:11:37.846Z,18.52
2023-04-24T19:14:05.794Z,17.64
2023-04-24T19:16:36.363Z,17.43
2023-04-24T19:19:09.483Z,18.71
2023-04-24T19:21:37.775Z,19.37
2023-04-24T19:24:10.060Z,18.46
2023-04-24T19:26:38.176Z,17.58
2023-04-24T19:29:05.946Z,17.08
2023-04-24T19:31:33.739Z,18.02
2023-04-24T19:34:01.737Z,19.26
2023-04-24T19:36:32.494Z,18.98
2023-04-24T19:45:34.025Z,18.09
2023-04-24T19:48:02.162Z,19.17
2023-04-24T19:50:31.391Z,18.54
2023-04-24T19:52:59.299Z,17.57
2023-04-24T19:55:27.225Z,16.91
2023-04-24T19:57:55.722Z,17.02
2023-04-24T20:00:23.629Z,18.42
2023-04-24T20:02:51.685Z,19.19
2023-04-24T20:05:20.208Z,18.28
2023-04-24T20:07:51.306Z,17.37
2023-04-24T20:10:19.143Z,16.77
2023-04-24T20:12:47.107Z,17.58
2023-04-24T20:15:14.972Z,19.11
2023-04-24T20:17:42.834Z,19.02
2023-04-24T20:20:11.872Z,17.94
2023-04-24T20:22:39.845Z,17.11
2023-04-24T20:25:13.557Z,16.98
2023-04-24T20:27:41.401Z,18.47
2023-04-24T20:30:13.368Z,19.20
2023-04-24T20:32:43.466Z,18.20
2023-04-24T20:35:14.627Z,17.26
2023-04-24T20:37:42.445Z,16.61
2023-04-24T20:40:11.126Z,17.21
2023-04-24T20:42:39.617Z,18.69
2023-04-24T20:45:08.397Z,18.69
2023-04-24T20:47:54.729Z,17.49
2023-04-24T20:50:22.704Z,16.68
2023-04-24T20:52:51.209Z,16.52
2023-04-24T20:55:19.002Z,17.72
2023-04-24T20:57:46.946Z,18.41
2023-04-24T21:00:15.366Z,17.51
2023-04-24T21:02:43.410Z,16.62
2023-04-24T21:05:12.374Z,16.07
2023-04-24T21:07:40.263Z,16.91
2023-04-24T21:10:09.057Z,18.17
2023-04-24T21:12:36.918Z,18.04
2023-04-24T21:15:05.626Z,16.99
2023-04-24T21:17:33.757Z,16.17
2023-04-24T21:20:01.667Z,15.70
2023-04-24T21:22:30.443Z,16.62
2023-04-24T21:24:58.322Z,17.70
2023-04-24T21:27:26.215Z,17.11
2023-04-24T21:29:54.323Z,16.21
2023-04-24T21:32:22.502Z,15.55
2023-04-24T21:34:50.583Z,15.14
2023-04-24T21:37:18.544Z,16.05
2023-04-24T21:39:46.370Z,17.24
2023-04-24T21:42:14.287Z,16.73
2023-04-24T21:44:42.426Z,15.84
2023-04-24T21:47:10.293Z,15.20
2023-04-24T21:49:38.322Z,14.74
2023-04-24T21:52:06.323Z,15.09
2023-04-24T21:54:34.143Z,16.52
2023-04-24T21:57:02.466Z,16.64
2023-04-24T21:59:30.576Z,15.73
2023-04-24T22:01:58.883Z,15.02
2023-04-24T22:04:27.096Z,14.52
2023-04-24T22:06:55.333Z,14.53
2023-04-24T22:09:23.424Z,15.94
2023-04-24T22:11:51.788Z,16.39
2023-04-24T22:14:19.776Z,15.53
2023-04-24T22:16:47.966Z,14.82
2023-04-24T22:19:16.160Z,14.31
2023-04-24T22:21:43.937Z,13.92
2023-04-24T22:24:11.929Z,13.60
2023-04-24T22:26:39.819Z,13.32
2023-04-24T22:29:07.628Z,13.23
2023-04-24T22:31:36.063Z,14.47
2023-04-24T22:34:03.970Z,15.04
2023-04-24T22:36:31.934Z,14.36
2023-04-24T22:38:59.888Z,13.78
2023-04-24T22:41:27.697Z,13.37
2023-04-24T22:43:55.950Z,13.05
2023-04-24T22:46:25.128Z,13.13
2023-04-24T22:48:53.042Z,14.61
2023-04-24T22:51:21.406Z,15.25
2023-04-24T22:53:49.759Z,14.47
2023-04-24T22:56:18.210Z,13.78
2023-04-24T22:58:46.761Z,13.30
2023-04-24T23:01:14.621Z,12.95
2023-04-24T23:03:42.686Z,13.34
2023-04-24T23:06:10.769Z,14.89
2023-04-24T23:08:38.624Z,15.06
2023-04-24T23:11:06.452Z,14.24
2023-04-24T23:13:34.322Z,13.58
2023-04-24T23:16:02.127Z,13.13
2023-04-24T23:18:30.061Z,12.78
2023-04-24T23:20:58.266Z,13.02
2023-04-24T23:23:26.122Z,14.51
2023-04-24T23:25:53.934Z,15.25
2023-04-24T23:28:21.795Z,14.45
2023-04-24T23:30:49.751Z,13.67
2023-04-24T23:33:17.559Z,13.13
2023-04-24T23:35:45.373Z,12.74
2023-04-24T23:38:13.183Z,12.42
2023-04-24T23:40:40.948Z,12.76
2023-04-24T23:43:08.896Z,14.30
2023-04-24T23:45:37.194Z,14.70
2023-04-24T23:48:05.921Z,13.86
2023-04-24T23:50:34.082Z,13.16
2023-04-24T23:53:01.985Z,12.67
2023-04-24T23:55:29.850Z,12.36
2023-04-24T23:57:57.747Z,13.21
